Torun, Poland
Current Conditions -  °F | °C
As of 11:00 PM on Tuesday 21 Oct 2014 (Local Time) from EPBY Reporting Station
Light Rain Light Rain  
Wind Chill: 52°   Ceiling: 4700
Heat Index: 52°   Visibility: 2.5mi
Dew Point: 50°   Wind: 3mph
Humidity: 94%   Direction: 140°SE
Pressure: 29.56"   Gusts: NA
Location:  53.02°N, 18.61°E
Report Text: EPBY 212100Z 14003KT 4000 -RA BR FEW017 SCT026 BKN047 11/10 Q1001
Loading
Personal Weather Stations






























Interactive Weather Map
Tropical Storm Tracking
New forecast layout! Learn more

10-Day Weather Forecast

Advertisements
Track Severe Weather on mobile